Milo, Maine
Current Conditions -  °F | °C
As of 5:53 PM on Wednesday 22 Oct 2014 (Local Time) from KMLT Reporting Station
Light Rain Light Rain  
Wind Chill: 43°   Ceiling: 6000
Heat Index: 47°   Visibility: 10mi
Dew Point: 41°   Wind: 9mph
Humidity: 80%   Direction: 50°NE
Pressure: 30.27"   Gusts: NA
Location:  45.25°N, 68.98°W
Report Text: KMLT 222153Z AUTO 05008KT 10SM -RA SCT045 BKN060 OVC070 08/05 A3027 RMK AO2 RAB48 SLP256 P0000 T00830050
Loading
Personal Weather Stations






























Interactive Weather Map New forecast layout! Learn more

10-Day Weather Forecast

Advertisements
Track Severe Weather on mobile